Terminal Aerodrome Forecast
Issued by NWS Mt. Holly, NJ

Home | Current Version | Previous Version | Text Only | Print | Product List | Glossary On
Versions: 1 2 3 4 5 6 7 8 9 10 11 12 13 14 15 16 17 18 19 20 21 22 23
000
FTUS41 KPHI 030304 AAB
TAFACY
TAF AMD
KACY 030304Z 0303/0324 11007KT P6SM -SHRA OVC015
      TEMPO 0304/0306 1 1/2SM +TSRA BR BKN008 OVC030CB
     FM030600 07008KT 2SM SHRA BR OVC003
     FM031400 03009KT 5SM -SHRA BR OVC006
     FM032200 07006KT P6SM OVC010=

USA.gov is the U.S. government's official web portal to all federal, state and local government web resources and services.